Aeroporto :
LOGIN :

Iscrizione | Disclaimer

   EN    FR    IT 

 










Sommario :    VFR   VFR Marginale   IFR   IFR Intensivo   IFR Molto Intensivo
Visibilità : 
Base nubi : 
>= 8 km
>= 3000ft
5 / 8 km
1000 / 3000 ft
1500m / 5 km
500 / 1000 ft
800 / 1500m
200 / 500 ft
< 800m
< 200 ft
Simboli :   Temporali  Nebbia  Neve Forte  Precipitazioni Forti  Vento > 20 kt
SIGMETs :   Varie  Temporali  Ghiacco  Turbolenza  Onda orograficha  Ceneri Vulcaniche






- Altitudine del aeroporto : 425 ft
- Codice IATA : DTM


EDLW - Dortmund

ULTIMO METAR :
  • 202250Z AUTO 25011KT 220V280 9999 // FEW022/// BKN029/// OVC034/// 13/08 Q1019

METARs OBSOLETI :
  • 202220Z AUTO 25013KT 230V300 9999 // FEW024/// OVC037/// 13/09 Q1019
  • 202150Z AUTO 25013KT 9999 // SCT019/// BKN027/// OVC035/// 14/09 Q1018
  • 202120Z AUTO 24012KT 9999 // SCT016/// BKN020/// OVC031/// 14/11 Q1017
  • 202050Z AUTO 25011KT 230V310 9999 // FEW014/// SCT016/// OVC026/// 14/11 Q1017
  • 202020Z 26010KT 230V290 9999 SCT010 BKN016 14/12 Q1017

TAF TAF EDLW
Valido dal 20 a 18 ore il 21 a 18 ore UTC


201700Z 2018/2118 27010KT 9999 SCT025
TEMPO 2018/2022 27015G30KT
TEMPO 2020/2106 BKN012
PROB30
TEMPO 2020/2101 BKN009
BECMG 2020/2023 25005KT
BECMG 2106/2109 26010KT



MetMap, La meteo Aeronautica in un colpo d'occhio ! - Copyright ORBIFLY Dicembre 2007 - Disclaimer

ORBIFLY MET'MAP TEAM :

Programmazione e sviluppo : Alexandra Zaïnal
Concezione : Baudouin d'Aumeries
Supporto tecnico e logistico : Manuel Goepfert
Aiuto : Marc-Olivier Méhu
Aiuto per la traduzione : Arnaldo La Scala

Contatto : metmap@orbifly.com




FONTI E CREDITI :

   NOAA